Terminal Aerodrome Forecast
Issued by NWS Amarillo, TX

Current Version | Previous Version | Text Only | Print | Product List | Glossary On
Versions: 1 2 3 4 5 6 7 8 9 10 11 12 13 14 15 16 17 18
000
FTUS44 KAMA 281100
TAFDHT
TAF
KDHT 281120Z 2812/2912 25008KT P6SM SCT200
     FM281400 34010KT P6SM SCT200
     FM282200 03009KT P6SM SCT080 BKN200
     FM290800 36008KT P6SM SCT200=

USA.gov is the U.S. government's official web portal to all federal, state and local government web resources and services.